createdAt,value
2022-10-12T00:01:34.300Z,87.99
2022-10-12T00:04:02.309Z,88.55
2022-10-12T00:06:30.299Z,88.00
2022-10-12T00:09:00.322Z,87.78
2022-10-12T00:11:30.299Z,88.00
2022-10-12T00:13:59.596Z,87.80
2022-10-12T00:16:32.331Z,88.46
2022-10-12T00:19:01.045Z,87.94
2022-10-12T00:21:30.689Z,88.37
2022-10-12T00:24:02.234Z,87.95
2022-10-12T00:26:31.154Z,88.12
2022-10-12T00:29:01.527Z,88.67
2022-10-12T00:31:33.275Z,88.27
2022-10-12T00:34:03.301Z,88.13
2022-10-12T00:36:36.227Z,88.42
2022-10-12T00:39:09.205Z,87.63
2022-10-12T00:41:45.098Z,87.87
2022-10-12T00:44:36.253Z,88.30
2022-10-12T00:47:10.798Z,88.07
2022-10-12T00:49:39.100Z,87.91
2022-10-12T00:52:14.024Z,87.84
2022-10-12T00:54:47.792Z,87.89
2022-10-12T00:57:19.125Z,87.85
2022-10-12T01:00:03.956Z,88.10
2022-10-12T01:02:35.225Z,87.85
2022-10-12T01:05:05.305Z,87.92
2022-10-12T01:07:33.622Z,88.37
2022-10-12T01:10:01.614Z,88.50
2022-10-12T01:12:34.109Z,88.21
2022-10-12T01:15:03.325Z,88.15
2022-10-12T01:17:53.164Z,87.96
2022-10-12T01:20:27.100Z,88.04
2022-10-12T01:23:18.150Z,87.52
2022-10-12T01:26:08.179Z,88.27
2022-10-12T01:28:51.127Z,87.92
2022-10-12T01:31:39.804Z,88.28
2022-10-12T01:34:15.102Z,88.19
2022-10-12T01:36:55.073Z,87.67
2022-10-12T01:39:27.926Z,88.07
2022-10-12T01:42:00.982Z,87.81
2022-10-12T01:44:30.818Z,88.12
2022-10-12T01:46:59.109Z,88.15
2022-10-12T01:49:31.712Z,87.73
2022-10-12T01:52:26.857Z,87.95
2022-10-12T01:55:19.570Z,88.19
2022-10-12T01:58:17.222Z,88.11
2022-10-12T02:00:58.961Z,87.83
2022-10-12T02:03:57.324Z,87.34
2022-10-12T02:06:34.906Z,87.95
2022-10-12T02:09:27.495Z,87.73
2022-10-12T02:12:00.457Z,87.44
2022-10-12T02:14:33.970Z,87.02
2022-10-12T02:17:05.506Z,87.96
2022-10-12T02:19:41.017Z,87.58
2022-10-12T02:22:36.553Z,87.32
2022-10-12T02:25:10.857Z,87.61
2022-10-12T02:27:44.412Z,87.37
2022-10-12T02:30:13.206Z,87.59
2022-10-12T02:32:46.917Z,87.43
2022-10-12T02:35:32.508Z,87.70
2022-10-12T02:38:11.716Z,87.91
2022-10-12T02:40:52.970Z,87.01
2022-10-12T02:43:24.436Z,86.78
2022-10-12T02:45:56.588Z,87.45
2022-10-12T02:48:26.676Z,87.03
2022-10-12T02:50:59.148Z,87.04
2022-10-12T02:53:29.289Z,86.50
2022-10-12T02:56:11.718Z,87.09
2022-10-12T02:58:41.699Z,87.03
2022-10-12T03:01:09.724Z,86.87
2022-10-12T03:03:56.007Z,87.05
2022-10-12T03:06:24.744Z,86.70
2022-10-12T03:08:52.711Z,86.86
2022-10-12T03:11:21.525Z,86.63
2022-10-12T03:14:04.649Z,86.43
2022-10-12T03:16:32.734Z,86.05
2022-10-12T03:19:00.786Z,85.76
2022-10-12T03:21:28.707Z,85.98
2022-10-12T03:23:56.961Z,85.40
2022-10-12T03:26:24.948Z,84.95
2022-10-12T03:28:52.944Z,85.41
2022-10-12T03:31:23.247Z,85.04
2022-10-12T03:33:51.262Z,85.44
2022-10-12T03:36:19.454Z,84.38
2022-10-12T03:38:47.488Z,84.63
2022-10-12T03:41:15.468Z,84.64
2022-10-12T03:43:43.376Z,84.68
2022-10-12T03:46:12.390Z,84.20
2022-10-12T03:48:40.335Z,84.42
2022-10-12T03:51:08.360Z,84.50
2022-10-12T03:53:36.566Z,83.83
2022-10-12T03:56:05.000Z,84.14
2022-10-12T03:58:33.271Z,84.34
2022-10-12T04:01:03.194Z,83.92
2022-10-12T04:03:31.184Z,84.01
2022-10-12T04:05:59.824Z,83.67
2022-10-12T04:08:30.831Z,83.55
2022-10-12T04:10:58.983Z,83.76
2022-10-12T04:13:26.948Z,83.47
2022-10-12T04:15:55.080Z,83.38
2022-10-12T04:18:23.087Z,82.94
2022-10-12T04:20:51.265Z,82.85
2022-10-12T04:23:19.512Z,82.52
2022-10-12T04:25:47.886Z,82.68
2022-10-12T04:28:15.906Z,82.06
2022-10-12T04:30:44.051Z,82.17
2022-10-12T04:33:11.967Z,82.26
2022-10-12T04:35:40.003Z,82.68
2022-10-12T04:38:08.029Z,82.87
2022-10-12T04:40:36.018Z,81.83
2022-10-12T04:43:04.061Z,82.20
2022-10-12T04:45:32.298Z,81.76
2022-10-12T04:48:00.244Z,81.36
2022-10-12T04:50:30.187Z,81.85
2022-10-12T04:52:58.544Z,82.12
2022-10-12T04:55:27.666Z,81.55
2022-10-12T04:57:55.627Z,81.35
2022-10-12T05:00:39.010Z,81.41
2022-10-12T05:03:07.062Z,81.77
2022-10-12T05:05:36.761Z,81.63
2022-10-12T05:08:06.021Z,81.14
2022-10-12T05:10:34.687Z,81.67
2022-10-12T05:13:02.613Z,81.30
2022-10-12T05:15:32.231Z,80.87
2022-10-12T05:18:00.334Z,80.88
2022-10-12T05:20:28.402Z,80.98
2022-10-12T05:22:58.756Z,80.52
2022-10-12T05:25:26.816Z,80.62
2022-10-12T05:27:54.852Z,80.45
2022-10-12T05:30:23.709Z,80.32
2022-10-12T05:32:51.681Z,80.66
2022-10-12T05:35:19.651Z,80.26
2022-10-12T05:37:49.297Z,80.32
2022-10-12T05:40:17.371Z,80.09
2022-10-12T05:42:46.151Z,79.89
2022-10-12T05:45:17.771Z,79.61
2022-10-12T05:47:45.906Z,79.29
2022-10-12T05:50:13.894Z,80.12
2022-10-12T05:52:44.345Z,79.22
2022-10-12T05:55:12.358Z,79.00
2022-10-12T05:57:40.516Z,79.38
2022-10-12T06:00:09.845Z,80.03
2022-10-12T06:02:38.473Z,79.67
2022-10-12T06:05:06.987Z,79.25
2022-10-12T06:07:37.081Z,79.59
2022-10-12T06:10:05.493Z,79.74
2022-10-12T06:12:33.773Z,79.75
2022-10-12T06:15:02.016Z,79.25
2022-10-12T06:17:32.682Z,79.48
2022-10-12T06:20:00.614Z,79.10
2022-10-12T06:22:28.828Z,78.79
2022-10-12T06:24:56.958Z,79.20
2022-10-12T06:27:25.825Z,78.89
2022-10-12T06:29:54.116Z,79.18
2022-10-12T06:32:22.114Z,79.00
2022-10-12T06:34:50.066Z,79.20
2022-10-12T06:37:44.557Z,78.83
2022-10-12T06:40:06.730Z,79.17
2022-10-12T06:42:34.873Z,78.95
2022-10-12T06:45:02.986Z,78.56
2022-10-12T06:47:31.922Z,78.96
2022-10-12T06:50:01.736Z,79.08
2022-10-12T06:52:32.412Z,78.98
2022-10-12T06:55:00.390Z,79.14
2022-10-12T06:57:30.305Z,78.91
2022-10-12T06:59:59.296Z,78.51
2022-10-12T07:02:45.712Z,79.35
2022-10-12T07:05:14.691Z,79.13
2022-10-12T07:07:43.109Z,79.26
2022-10-12T07:10:11.311Z,79.75
2022-10-12T07:12:40.488Z,79.61
2022-10-12T07:15:09.703Z,79.56
2022-10-12T07:17:38.032Z,79.60
2022-10-12T07:20:08.408Z,80.25
2022-10-12T07:22:36.602Z,80.47
2022-10-12T07:25:05.711Z,80.30
2022-10-12T07:27:33.627Z,80.36
2022-10-12T07:30:01.677Z,80.49
2022-10-12T07:32:32.130Z,80.57
2022-10-12T07:35:00.038Z,81.59
2022-10-12T07:37:27.950Z,80.99
2022-10-12T07:39:59.671Z,80.91
2022-10-12T07:42:27.715Z,80.58
2022-10-12T07:44:55.657Z,80.85
2022-10-12T07:47:26.229Z,81.01
2022-10-12T07:49:54.177Z,81.23
2022-10-12T07:52:22.198Z,81.07
2022-10-12T07:54:50.295Z,81.81
2022-10-12T07:57:18.257Z,81.76
2022-10-12T07:59:46.125Z,81.66
2022-10-12T08:02:15.253Z,82.22
2022-10-12T08:04:43.326Z,81.73
2022-10-12T08:07:12.655Z,82.02
2022-10-12T08:09:58.737Z,82.26
2022-10-12T08:12:26.834Z,82.49
2022-10-12T08:14:54.831Z,82.25
2022-10-12T08:17:23.910Z,81.99
2022-10-12T08:19:51.872Z,82.28
2022-10-12T08:22:19.953Z,82.54
2022-10-12T08:24:49.034Z,82.46
2022-10-12T08:27:17.019Z,82.57
2022-10-12T08:29:44.977Z,82.33
2022-10-12T08:32:14.169Z,82.46
2022-10-12T08:34:42.137Z,81.91
2022-10-12T08:37:10.068Z,82.46
2022-10-12T08:39:38.284Z,82.66
2022-10-12T08:42:35.054Z,82.92
2022-10-12T08:45:30.605Z,82.38
2022-10-12T08:48:15.193Z,82.78
2022-10-12T08:51:01.199Z,82.58
2022-10-12T08:53:38.326Z,82.77
2022-10-12T08:56:06.819Z,82.26
2022-10-12T08:58:40.212Z,83.07
2022-10-12T09:01:31.084Z,83.10
2022-10-12T09:04:27.320Z,83.17
2022-10-12T09:07:21.688Z,83.51
2022-10-12T09:09:56.643Z,83.03
2022-10-12T09:12:38.963Z,83.33
2022-10-12T09:15:18.257Z,83.32
2022-10-12T09:17:53.145Z,83.64
2022-10-12T09:20:22.948Z,83.12
2022-10-12T09:22:52.292Z,83.05
2022-10-12T09:25:25.209Z,83.64
2022-10-12T09:27:54.167Z,82.53
2022-10-12T09:30:22.518Z,83.14
2022-10-12T09:33:03.054Z,83.29
2022-10-12T09:35:31.374Z,82.85
2022-10-12T09:37:59.377Z,83.23
2022-10-12T09:40:50.581Z,83.42
2022-10-12T09:43:19.065Z,83.51
2022-10-12T09:45:50.204Z,83.58
2022-10-12T09:48:25.080Z,83.78
2022-10-12T09:51:00.644Z,83.81
2022-10-12T09:53:33.607Z,83.38
2022-10-12T09:56:32.085Z,83.39
2022-10-12T09:59:04.729Z,83.73
2022-10-12T10:01:50.262Z,83.78
2022-10-12T10:04:24.727Z,83.64
2022-10-12T10:06:54.435Z,84.21
2022-10-12T10:09:30.301Z,83.95
2022-10-12T10:12:13.294Z,84.17
2022-10-12T10:14:44.976Z,83.83
2022-10-12T10:17:27.378Z,84.63
2022-10-12T10:19:57.741Z,84.70
2022-10-12T10:22:26.271Z,84.23
2022-10-12T10:25:00.435Z,83.82
2022-10-12T10:27:39.011Z,84.71
2022-10-12T10:30:28.664Z,84.52
2022-10-12T10:33:17.558Z,84.57
2022-10-12T10:36:21.208Z,84.98
2022-10-12T10:39:06.658Z,85.17
2022-10-12T10:41:39.418Z,84.31
2022-10-12T10:44:24.712Z,84.83
2022-10-12T10:46:56.333Z,85.11
2022-10-12T10:49:36.526Z,84.72
2022-10-12T10:52:07.276Z,84.87
2022-10-12T10:54:41.596Z,84.51
2022-10-12T10:57:22.317Z,84.71
2022-10-12T11:00:36.897Z,85.16
2022-10-12T11:02:59.402Z,84.95
2022-10-12T11:05:33.192Z,85.53
2022-10-12T11:08:15.193Z,85.67
2022-10-12T11:10:50.980Z,85.51
2022-10-12T11:13:25.021Z,86.12
2022-10-12T11:16:08.443Z,85.59
2022-10-12T11:18:59.231Z,86.00
2022-10-12T11:21:52.251Z,85.81
2022-10-12T11:24:49.985Z,85.66
2022-10-12T11:27:32.253Z,86.08
2022-10-12T11:30:09.160Z,85.91
2022-10-12T11:32:46.063Z,85.82
2022-10-12T11:35:40.225Z,86.26
2022-10-12T11:38:31.186Z,86.37
2022-10-12T11:41:34.536Z,86.21
2022-10-12T11:44:08.439Z,86.44
2022-10-12T11:46:49.307Z,86.45
2022-10-12T11:49:58.578Z,86.17
2022-10-12T11:52:37.077Z,86.47
2022-10-12T11:55:39.310Z,86.59
2022-10-12T11:58:31.596Z,86.41
2022-10-12T12:01:31.327Z,86.08
2022-10-12T12:04:42.529Z,86.16
2022-10-12T12:07:48.721Z,86.23
2022-10-12T12:10:29.484Z,86.36
2022-10-12T12:13:27.703Z,85.55
2022-10-12T12:15:58.554Z,86.13
2022-10-12T12:18:34.050Z,85.74
2022-10-12T12:21:08.363Z,85.74
2022-10-12T12:23:55.089Z,85.88
2022-10-12T12:26:29.851Z,85.60
2022-10-12T12:29:17.514Z,86.11
2022-10-12T12:32:02.069Z,85.78
2022-10-12T12:34:30.277Z,85.86
2022-10-12T12:36:59.256Z,85.76
2022-10-12T12:39:36.136Z,86.17
2022-10-12T12:42:10.285Z,85.78
2022-10-12T12:44:51.346Z,86.05
2022-10-12T12:47:45.717Z,85.79
2022-10-12T12:50:48.029Z,86.03
2022-10-12T12:53:22.994Z,86.23
2022-10-12T12:56:06.359Z,86.17
2022-10-12T12:58:36.928Z,86.33
2022-10-12T13:01:35.239Z,86.17
2022-10-12T13:04:28.776Z,86.18
2022-10-12T13:07:48.226Z,86.06
2022-10-12T13:10:41.342Z,86.11
2022-10-12T13:13:49.330Z,86.06
2022-10-12T13:17:31.351Z,85.99
2022-10-12T13:19:46.511Z,86.32
2022-10-12T13:22:27.977Z,86.33
2022-10-12T13:25:03.789Z,85.78
2022-10-12T13:28:17.462Z,86.05
2022-10-12T13:30:59.882Z,85.62
2022-10-12T13:33:36.054Z,85.93
2022-10-12T13:36:19.214Z,85.93
2022-10-12T13:38:47.222Z,85.92
2022-10-12T13:41:19.753Z,86.17
2022-10-12T13:44:00.235Z,85.70
2022-10-12T13:46:48.041Z,85.99
2022-10-12T13:49:27.816Z,85.79
2022-10-12T13:52:14.564Z,85.63
2022-10-12T13:54:50.032Z,85.57
2022-10-12T13:57:34.728Z,85.71
2022-10-12T14:00:14.835Z,85.28
2022-10-12T14:02:53.882Z,85.14
2022-10-12T14:05:24.921Z,85.92
2022-10-12T14:07:55.949Z,85.90
2022-10-12T14:10:40.227Z,85.97
2022-10-12T14:13:13.707Z,85.59
2022-10-12T14:15:42.275Z,85.73
2022-10-12T14:18:36.428Z,85.81
2022-10-12T14:21:14.825Z,85.40
2022-10-12T14:23:50.086Z,85.22
2022-10-12T14:26:33.962Z,85.35
2022-10-12T14:29:29.235Z,85.77
2022-10-12T14:31:59.595Z,85.94
2022-10-12T14:34:27.511Z,85.43
2022-10-12T14:37:27.795Z,85.04
2022-10-12T14:40:01.013Z,85.36
2022-10-12T14:42:35.499Z,85.40
2022-10-12T14:45:06.864Z,85.58
2022-10-12T14:50:24.611Z,85.50
2022-10-12T14:52:56.993Z,86.20
2022-10-12T14:55:31.349Z,86.00
2022-10-12T14:58:00.422Z,86.01
2022-10-12T15:00:34.675Z,86.22
2022-10-12T15:03:04.365Z,86.19
2022-10-12T15:05:33.508Z,86.08
2022-10-12T15:08:15.088Z,86.47
2022-10-12T15:10:43.487Z,86.39
2022-10-12T15:13:14.868Z,86.25
2022-10-12T15:15:47.270Z,86.25
2022-10-12T15:18:15.546Z,86.46
2022-10-12T15:20:49.040Z,86.34
2022-10-12T15:23:17.896Z,85.73
2022-10-12T15:25:56.961Z,85.92
2022-10-12T15:28:25.913Z,86.32
2022-10-12T15:33:43.351Z,86.31
2022-10-12T15:36:11.644Z,86.33
2022-10-12T15:38:39.920Z,86.64
2022-10-12T15:41:19.477Z,86.29
2022-10-12T15:43:47.545Z,86.38
2022-10-12T15:46:15.506Z,86.61
2022-10-12T15:48:44.740Z,86.16
2022-10-12T15:51:24.635Z,86.29
2022-10-12T15:53:53.187Z,86.61
2022-10-12T15:56:21.951Z,86.64
2022-10-12T16:01:36.901Z,86.66
2022-10-12T16:04:06.746Z,86.46
2022-10-12T16:06:34.983Z,86.38
2022-10-12T16:09:03.119Z,85.99
2022-10-12T16:11:31.107Z,86.26
2022-10-12T16:13:59.036Z,86.55
2022-10-12T16:16:27.380Z,86.41
2022-10-12T16:18:55.349Z,86.46
2022-10-12T16:21:23.294Z,86.00
2022-10-12T16:23:53.101Z,86.50
2022-10-12T16:26:21.108Z,86.49
2022-10-12T16:28:49.163Z,86.65
2022-10-12T16:31:18.929Z,86.54
2022-10-12T16:33:47.005Z,86.48
2022-10-12T16:36:17.392Z,86.62
2022-10-12T16:38:45.862Z,86.09
2022-10-12T16:41:16.635Z,86.31
2022-10-12T16:43:45.460Z,86.09
2022-10-12T16:46:15.341Z,86.53
2022-10-12T16:48:44.540Z,86.31
2022-10-12T16:51:15.291Z,86.71
2022-10-12T16:53:44.390Z,86.29
2022-10-12T16:56:12.535Z,86.39
2022-10-12T16:58:40.642Z,86.65
2022-10-12T17:01:13.001Z,86.65
2022-10-12T17:03:41.192Z,86.70
2022-10-12T17:06:10.265Z,86.51
2022-10-12T17:08:41.013Z,86.59
2022-10-12T17:11:17.230Z,86.95
2022-10-12T17:13:48.988Z,86.59
2022-10-12T17:16:37.807Z,86.79
2022-10-12T17:19:06.115Z,86.48
2022-10-12T17:21:35.596Z,86.39
2022-10-12T17:24:03.643Z,86.30
2022-10-12T17:26:31.961Z,86.63
2022-10-12T17:29:00.073Z,87.04
2022-10-12T17:31:29.374Z,86.27
2022-10-12T17:33:58.673Z,86.76
2022-10-12T17:36:28.427Z,87.04
2022-10-12T17:38:58.749Z,86.73
2022-10-12T17:41:30.307Z,86.75
2022-10-12T17:43:59.145Z,86.91
2022-10-12T17:46:45.875Z,86.74
2022-10-12T17:49:15.794Z,86.53
2022-10-12T17:51:47.916Z,86.65
2022-10-12T17:54:19.201Z,86.52
2022-10-12T17:56:49.222Z,86.42
2022-10-12T17:59:19.480Z,86.75
2022-10-12T18:01:49.861Z,86.77
2022-10-12T18:04:17.849Z,86.45
2022-10-12T18:06:46.368Z,86.92
2022-10-12T18:09:15.557Z,87.20
2022-10-12T18:11:45.037Z,86.90
2022-10-12T18:14:13.894Z,86.70
2022-10-12T18:16:44.296Z,86.77
2022-10-12T18:19:12.702Z,86.96
2022-10-12T18:21:41.278Z,87.16
2022-10-12T18:24:16.682Z,86.64
2022-10-12T18:26:46.875Z,86.64
2022-10-12T18:29:15.387Z,86.66
2022-10-12T18:31:45.115Z,86.54
2022-10-12T18:34:13.025Z,87.24
2022-10-12T18:36:43.314Z,86.83
2022-10-12T18:39:11.529Z,87.29
2022-10-12T18:41:39.486Z,87.25
2022-10-12T18:44:07.927Z,87.28
2022-10-12T18:46:38.842Z,87.07
2022-10-12T18:49:10.163Z,87.06
2022-10-12T18:51:41.384Z,87.31
2022-10-12T18:54:13.492Z,86.99
2022-10-12T18:56:42.336Z,87.22
2022-10-12T18:59:13.123Z,86.97
2022-10-12T19:01:42.260Z,87.13
2022-10-12T19:04:10.286Z,87.30
2022-10-12T19:06:42.669Z,86.90
2022-10-12T19:09:15.231Z,87.14
2022-10-12T19:11:43.490Z,87.46
2022-10-12T19:14:14.796Z,87.42
2022-10-12T19:16:45.529Z,87.11
2022-10-12T19:19:20.939Z,87.44
2022-10-12T19:21:53.281Z,87.19
2022-10-12T19:24:22.514Z,87.17
2022-10-12T19:26:50.650Z,87.38
2022-10-12T19:29:21.127Z,87.47
2022-10-12T19:31:50.661Z,87.51
2022-10-12T19:34:21.710Z,87.54
2022-10-12T19:36:50.156Z,87.06
2022-10-12T19:39:24.227Z,87.26
2022-10-12T19:41:54.833Z,87.33
2022-10-12T19:44:22.967Z,87.62
2022-10-12T19:46:54.219Z,87.31
2022-10-12T19:49:22.202Z,87.27
2022-10-12T19:51:50.254Z,87.17
2022-10-12T19:54:18.386Z,87.38
2022-10-12T19:56:46.794Z,87.17
2022-10-12T19:59:14.843Z,87.59
2022-10-12T20:01:49.262Z,87.51
2022-10-12T20:04:18.163Z,87.05
2022-10-12T20:06:47.357Z,87.43
2022-10-12T20:09:15.419Z,87.60
2022-10-12T20:11:44.406Z,88.00
2022-10-12T20:14:12.758Z,87.77
2022-10-12T20:16:40.738Z,87.03
2022-10-12T20:19:08.865Z,87.59
2022-10-12T20:21:40.801Z,87.46
2022-10-12T20:24:10.505Z,87.45
2022-10-12T20:26:38.508Z,87.63
2022-10-12T20:29:06.572Z,87.43
2022-10-12T20:31:34.702Z,87.51
2022-10-12T20:34:02.666Z,87.64
2022-10-12T20:36:32.429Z,87.67
2022-10-12T20:39:00.769Z,87.89
2022-10-12T20:41:29.518Z,87.37
2022-10-12T20:43:59.543Z,87.62
2022-10-12T20:46:29.357Z,87.16
2022-10-12T20:49:00.250Z,87.54
2022-10-12T20:51:37.109Z,87.77
2022-10-12T20:54:07.409Z,87.65
2022-10-12T20:56:36.276Z,87.60
2022-10-12T20:59:04.347Z,87.66
2022-10-12T21:01:32.555Z,87.37
2022-10-12T21:04:00.605Z,87.58
2022-10-12T21:06:29.781Z,87.89
2022-10-12T21:09:01.849Z,87.43
2022-10-12T21:11:29.919Z,87.22
2022-10-12T21:13:58.275Z,87.20
2022-10-12T21:16:29.220Z,87.63
2022-10-12T21:18:57.588Z,87.27
2022-10-12T21:21:25.828Z,87.69
2022-10-12T21:24:00.002Z,87.56
2022-10-12T21:26:31.345Z,87.92
2022-10-12T21:29:00.867Z,87.47
2022-10-12T21:31:32.650Z,87.51
2022-10-12T21:34:07.158Z,87.08
2022-10-12T21:36:38.166Z,87.23
2022-10-12T21:39:13.381Z,87.60
2022-10-12T21:41:41.559Z,87.35
2022-10-12T21:44:12.503Z,87.32
2022-10-12T21:46:40.862Z,87.76
2022-10-12T21:49:08.999Z,87.45
2022-10-12T21:51:38.791Z,87.42
2022-10-12T21:54:08.062Z,87.45
2022-10-12T21:56:37.577Z,87.38
2022-10-12T21:59:06.906Z,87.34
2022-10-12T22:01:37.989Z,87.56
2022-10-12T22:04:13.515Z,87.74
2022-10-12T22:06:42.962Z,87.44
2022-10-12T22:09:17.209Z,87.30
2022-10-12T22:11:45.442Z,87.63
2022-10-12T22:14:16.732Z,87.70
2022-10-12T22:16:45.508Z,87.74
2022-10-12T22:19:18.343Z,87.67
2022-10-12T22:21:51.758Z,87.45
2022-10-12T22:24:20.889Z,87.42
2022-10-12T22:26:49.273Z,87.35
2022-10-12T22:29:17.270Z,87.64
2022-10-12T22:31:46.337Z,87.53
2022-10-12T22:34:15.476Z,87.98
2022-10-12T22:36:44.688Z,87.69
2022-10-12T22:39:12.652Z,87.61
2022-10-12T22:41:40.830Z,87.35
2022-10-12T22:44:08.976Z,87.87
2022-10-12T22:46:36.926Z,87.46
2022-10-12T22:49:05.775Z,87.23
2022-10-12T22:51:36.796Z,87.31
2022-10-12T22:54:04.993Z,87.69
2022-10-12T22:56:34.540Z,87.83
2022-10-12T22:59:07.155Z,87.77
2022-10-12T23:01:36.725Z,87.37
2022-10-12T23:04:06.211Z,87.83
2022-10-12T23:06:34.279Z,87.64
2022-10-12T23:09:02.849Z,87.92
2022-10-12T23:11:31.543Z,87.73
2022-10-12T23:14:00.105Z,87.41
2022-10-12T23:16:31.139Z,87.91
2022-10-12T23:19:04.076Z,87.91
2022-10-12T23:21:33.869Z,87.75
2022-10-12T23:24:05.380Z,87.52
2022-10-12T23:26:36.257Z,88.24
2022-10-12T23:29:04.731Z,87.63
2022-10-12T23:31:32.954Z,87.73
2022-10-12T23:34:06.985Z,88.08
2022-10-12T23:36:35.743Z,88.05
2022-10-12T23:39:06.039Z,87.87
2022-10-12T23:41:36.760Z,87.96
2022-10-12T23:44:04.999Z,88.03
2022-10-12T23:46:33.000Z,88.20
2022-10-12T23:49:01.294Z,87.86
2022-10-12T23:51:29.400Z,87.90
2022-10-12T23:53:57.489Z,87.71
2022-10-12T23:56:25.992Z,88.03
2022-10-12T23:58:54.969Z,87.78
